Time;durP1;ratioP1;P1;durP2;ratioP2;P2;SDS_P1;SDS_P2;PMS_P1;PMS_P2;Temp;Humidity;BMP_temperature;BMP_pressure;BME280_temperature;BME280_humidity;BME280_pressure;Samples;Min_cycle;Max_cycle;Signal;HPM_P1;HPM_P2
2022/03/25 00:02:23;;;;;;;48.30;33.57;;;7.10;99.90;;;;;;5064185;28;20199;-66
2022/03/25 00:04:52;;;;;;;48.13;32.37;;;6.90;99.90;;;;;;5059002;28;20776;-66
2022/03/25 00:07:26;;;;;;;44.80;31.03;;;6.90;99.90;;;;;;5063173;28;20192;-65
2022/03/25 00:09:53;;;;;;;46.40;31.00;;;6.70;1.00;;;;;;5058133;28;20250;-65
2022/03/25 00:12:23;;;;;;;44.60;30.90;;;6.80;1.00;;;;;;5063238;28;20187;-65
2022/03/25 00:14:50;;;;;;;45.77;31.40;;;6.70;1.00;;;;;;5061140;28;20534;-66
2022/03/25 00:17:17;;;;;;;46.17;31.63;;;6.60;1.00;;;;;;5058974;28;20205;-65
2022/03/25 00:19:44;;;;;;;44.60;30.27;;;6.60;1.00;;;;;;5060583;28;20234;-66
2022/03/25 00:22:11;;;;;;;42.37;29.47;;;6.60;1.00;;;;;;5056865;28;20202;-65
2022/03/25 00:24:38;;;;;;;40.57;28.83;;;6.60;1.00;;;;;;5064227;28;20261;-65
2022/03/25 00:27:09;;;;;;;43.83;28.53;;;6.60;99.90;;;;;;5058051;28;20280;-65
2022/03/25 00:29:36;;;;;;;43.67;30.47;;;6.60;99.90;;;;;;5060137;28;20268;-65
2022/03/25 00:32:05;;;;;;;46.37;29.93;;;6.60;1.00;;;;;;5058503;28;20217;-66
2022/03/25 00:34:34;;;;;;;41.43;29.07;;;6.50;1.00;;;;;;5058619;28;20198;-66
2022/03/25 00:37:07;;;;;;;42.60;30.17;;;6.50;1.00;;;;;;5046399;28;20220;-65
2022/03/25 00:39:34;;;;;;;41.47;29.00;;;6.50;1.00;;;;;;5041971;28;20650;-65
2022/03/25 00:42:01;;;;;;;42.63;29.73;;;6.50;1.00;;;;;;5059319;28;20202;-66
2022/03/25 00:44:32;;;;;;;42.63;30.20;;;6.50;1.00;;;;;;5063216;28;20234;-65
2022/03/25 00:47:02;;;;;;;48.23;29.80;;;6.40;1.00;;;;;;5068630;28;20213;-65
2022/03/25 00:49:29;;;;;;;43.83;29.33;;;6.40;1.00;;;;;;5050854;28;20205;-65
2022/03/25 00:51:58;;;;;;;45.27;31.03;;;6.40;1.00;;;;;;5063597;28;21056;-65
2022/03/25 00:54:25;;;;;;;47.30;29.50;;;6.40;1.00;;;;;;5061678;28;20876;-65
2022/03/25 00:56:55;;;;;;;46.07;30.70;;;6.40;1.00;;;;;;5052829;28;20239;-65
2022/03/25 00:59:23;;;;;;;43.40;32.37;;;6.40;1.00;;;;;;5064205;28;20199;-65
2022/03/25 01:01:50;;;;;;;43.03;31.50;;;6.30;1.00;;;;;;5063089;28;20206;-65
2022/03/25 01:04:17;;;;;;;44.23;30.83;;;6.30;1.00;;;;;;5064402;28;20204;-65
2022/03/25 01:06:45;;;;;;;46.23;31.57;;;6.30;1.00;;;;;;5063166;28;20202;-65
2022/03/25 01:09:14;;;;;;;44.90;29.77;;;6.30;1.00;;;;;;5047298;28;20692;-66
2022/03/25 01:11:41;;;;;;;44.43;29.67;;;6.30;1.00;;;;;;5048381;28;20219;-65
2022/03/25 01:14:08;;;;;;;42.63;30.87;;;6.30;1.00;;;;;;5067681;28;20197;-65
2022/03/25 01:16:35;;;;;;;45.30;32.07;;;6.10;1.00;;;;;;5050200;28;20198;-65
2022/03/25 01:19:05;;;;;;;40.07;29.57;;;6.20;1.00;;;;;;5045709;28;20224;-65
2022/03/25 01:21:33;;;;;;;44.33;31.60;;;6.20;1.00;;;;;;5060815;28;20190;-65
2022/03/25 01:24:04;;;;;;;46.57;31.47;;;6.10;1.00;;;;;;5062751;28;20227;-66
2022/03/25 01:26:34;;;;;;;45.13;30.70;;;6.10;1.00;;;;;;5063937;28;20191;-65
2022/03/25 01:29:01;;;;;;;41.67;30.83;;;6.00;1.00;;;;;;5050769;28;20613;-65
2022/03/25 01:31:29;;;;;;;44.03;31.13;;;6.00;1.00;;;;;;5061775;28;20219;-65
2022/03/25 01:33:56;;;;;;;44.87;31.67;;;5.90;1.00;;;;;;5052404;28;20200;-65
2022/03/25 01:36:24;;;;;;;47.70;31.40;;;5.90;1.00;;;;;;5046096;28;20198;-64
2022/03/25 01:38:51;;;;;;;45.57;32.37;;;5.70;1.00;;;;;;5058954;28;20209;-64
2022/03/25 01:41:18;;;;;;;46.57;31.67;;;5.60;1.00;;;;;;5066032;28;20206;-64
2022/03/25 01:43:55;;;;;;;45.63;31.53;;;5.50;1.00;;;;;;5063462;28;20818;-65
2022/03/25 01:46:22;;;;;;;44.97;32.00;;;5.60;1.00;;;;;;5037915;28;20199;-65
2022/03/25 01:48:52;;;;;;;49.77;31.60;;;5.50;1.00;;;;;;5066504;28;20252;-65
2022/03/25 01:51:36;;;;;;;46.40;30.30;;;5.50;1.00;;;;;;5043545;28;20300;-65
2022/03/25 01:54:22;;;;;;;46.03;30.57;;;5.50;1.00;;;;;;5043467;28;20191;-65
2022/03/25 01:56:53;;;;;;;48.50;31.37;;;5.40;1.00;;;;;;5066794;28;20245;-65
2022/03/25 01:59:22;;;;;;;46.53;33.80;;;5.30;1.00;;;;;;5062295;28;20203;-65
2022/03/25 02:01:50;;;;;;;45.37;31.83;;;5.20;1.00;;;;;;5066284;28;20280;-64
2022/03/25 02:04:19;;;;;;;45.30;30.27;;;5.20;1.00;;;;;;5076579;28;20199;-65
2022/03/25 02:06:47;;;;;;;41.47;29.67;;;5.30;1.00;;;;;;5062270;28;20672;-65
2022/03/25 02:09:15;;;;;;;49.47;30.20;;;5.30;1.00;;;;;;5071773;28;20191;-65
2022/03/25 02:11:45;;;;;;;49.27;30.67;;;5.30;1.00;;;;;;5064494;28;20211;-65
2022/03/25 02:14:12;;;;;;;45.20;30.57;;;5.30;1.00;;;;;;5068807;28;20203;-65
2022/03/25 02:16:44;;;;;;;46.10;30.97;;;5.40;1.00;;;;;;5064417;28;20191;-65
2022/03/25 02:19:12;;;;;;;45.83;30.33;;;5.40;1.00;;;;;;5062944;28;20195;-65
2022/03/25 02:21:41;;;;;;;40.73;28.27;;;5.30;1.00;;;;;;5045528;28;20207;-65
2022/03/25 02:24:12;;;;;;;44.37;30.50;;;5.40;1.00;;;;;;5044174;28;20242;-64
2022/03/25 02:26:45;;;;;;;47.27;31.20;;;5.30;1.00;;;;;;5065756;28;20240;-65
2022/03/25 02:29:17;;;;;;;43.63;29.63;;;5.20;1.00;;;;;;5049846;28;20253;-65
2022/03/25 02:31:44;;;;;;;42.70;29.03;;;4.90;7.70;;;;;;5043722;28;20269;-66
2022/03/25 02:34:14;;;;;;;43.93;29.10;;;4.90;38.00;;;;;;5065341;28;20677;-66
2022/03/25 02:36:43;;;;;;;43.67;28.37;;;4.90;86.10;;;;;;5061732;28;20217;-64
2022/03/25 02:39:13;;;;;;;41.90;29.53;;;4.80;82.40;;;;;;5063367;28;20195;-64
2022/03/25 02:41:41;;;;;;;47.80;29.70;;;4.90;1.00;;;;;;5061354;28;20203;-64
2022/03/25 02:44:10;;;;;;;43.77;29.73;;;4.60;99.90;;;;;;5045270;28;20231;-65
2022/03/25 02:46:44;;;;;;;45.43;28.70;;;4.60;62.00;;;;;;5052137;28;20206;-64
2022/03/25 02:49:11;;;;;;;42.83;27.97;;;4.60;24.30;;;;;;5060647;28;20851;-63
2022/03/25 02:51:40;;;;;;;46.27;29.47;;;4.50;90.60;;;;;;5064239;28;20571;-64
2022/03/25 02:54:08;;;;;;;49.77;30.53;;;4.50;99.90;;;;;;5058829;28;20226;-64
2022/03/25 02:56:35;;;;;;;50.00;29.67;;;4.40;99.90;;;;;;5060597;28;20195;-65
2022/03/25 02:59:04;;;;;;;44.40;29.67;;;4.50;99.90;;;;;;5060499;28;20188;-63
2022/03/25 03:01:33;;;;;;;42.50;28.87;;;4.50;99.90;;;;;;5056925;28;20197;-65
2022/03/25 03:04:03;;;;;;;43.77;29.07;;;4.50;98.30;;;;;;5063533;28;20225;-64
2022/03/25 03:06:30;;;;;;;45.70;29.87;;;4.50;99.90;;;;;;5057222;28;20237;-64
2022/03/25 03:08:57;;;;;;;43.30;28.20;;;4.60;95.40;;;;;;5060043;28;20262;-64
2022/03/25 03:11:28;;;;;;;43.57;29.50;;;4.60;45.70;;;;;;5065620;28;20686;-64
2022/03/25 03:13:55;;;;;;;51.07;33.53;;;4.40;99.90;;;;;;5056320;28;20195;-65
2022/03/25 03:16:23;;;;;;;42.90;29.70;;;4.50;99.90;;;;;;5059312;28;20196;-64
2022/03/25 03:18:55;;;;;;;46.17;32.03;;;4.50;98.10;;;;;;5060311;28;20245;-64
2022/03/25 03:21:24;;;;;;;47.67;29.63;;;4.50;91.40;;;;;;5061165;28;20227;-64
2022/03/25 03:23:56;;;;;;;50.33;31.93;;;4.40;92.80;;;;;;5059401;28;20237;-64
2022/03/25 03:26:25;;;;;;;51.83;31.60;;;4.30;99.90;;;;;;5043688;28;20203;-63
2022/03/25 03:28:53;;;;;;;46.70;30.77;;;4.10;99.90;;;;;;5061241;28;20285;-66
2022/03/25 03:31:25;;;;;;;51.50;32.60;;;3.80;99.90;;;;;;5058383;28;20218;-64
2022/03/25 03:33:52;;;;;;;48.40;31.87;;;3.80;99.90;;;;;;5064961;28;20246;-64
2022/03/25 03:36:19;;;;;;;47.80;32.77;;;3.80;1.00;;;;;;5063910;28;20260;-65
2022/03/25 03:38:48;;;;;;;47.67;31.47;;;3.80;1.00;;;;;;5059178;28;20195;-65
2022/03/25 03:41:15;;;;;;;47.93;30.87;;;3.70;1.00;;;;;;5063949;28;20236;-64
2022/03/25 03:43:42;;;;;;;49.77;31.93;;;3.50;1.00;;;;;;5059339;28;20321;-65
2022/03/25 03:46:10;;;;;;;46.73;30.47;;;3.50;1.00;;;;;;5050059;28;20222;-64
2022/03/25 03:48:39;;;;;;;44.77;30.27;;;3.50;1.00;;;;;;5058756;28;20220;-64
2022/03/25 03:51:06;;;;;;;49.70;30.80;;;3.60;1.00;;;;;;5062024;28;20230;-64
2022/03/25 03:53:33;;;;;;;46.73;30.60;;;3.70;1.00;;;;;;5063872;28;20610;-64
2022/03/25 03:56:02;;;;;;;46.70;30.37;;;3.70;1.00;;;;;;5058515;28;20191;-69
2022/03/25 03:58:29;;;;;;;46.07;30.77;;;3.80;1.00;;;;;;5063297;28;20288;-65
2022/03/25 04:00:56;;;;;;;46.50;30.63;;;3.80;1.00;;;;;;5060988;28;20290;-66
2022/03/25 04:03:23;;;;;;;45.43;30.30;;;3.90;1.00;;;;;;5043680;28;20222;-67
2022/03/25 04:05:50;;;;;;;42.43;29.07;;;3.90;1.00;;;;;;5055749;28;20287;-66
2022/03/25 04:08:21;;;;;;;45.57;29.17;;;4.00;1.00;;;;;;5044571;28;20213;-67
2022/03/25 04:10:48;;;;;;;43.13;29.30;;;4.00;1.00;;;;;;5057755;28;20203;-64
2022/03/25 04:13:20;;;;;;;43.43;30.60;;;4.00;99.90;;;;;;5056612;28;20195;-64
2022/03/25 04:15:47;;;;;;;46.20;28.93;;;4.00;99.90;;;;;;5074153;28;20263;-64
2022/03/25 04:18:18;;;;;;;47.20;31.20;;;4.00;99.90;;;;;;5064045;28;20203;-64
2022/03/25 04:20:45;;;;;;;43.83;29.43;;;4.00;99.90;;;;;;5056768;28;20203;-64
2022/03/25 04:23:22;;;;;;;49.20;30.57;;;4.00;99.90;;;;;;5060974;28;20271;-64
2022/03/25 04:25:51;;;;;;;42.87;31.23;;;3.90;99.90;;;;;;5060256;28;20199;-65
2022/03/25 04:28:18;;;;;;;47.00;29.77;;;3.90;99.90;;;;;;5063386;28;20241;-64
2022/03/25 04:30:48;;;;;;;44.70;30.43;;;3.90;99.90;;;;;;5047992;28;20690;-64
2022/03/25 04:33:15;;;;;;;49.23;32.93;;;3.90;99.90;;;;;;5058211;28;20210;-64
2022/03/25 04:35:42;;;;;;;48.03;31.17;;;3.90;99.90;;;;;;5056321;28;20265;-64
2022/03/25 04:38:09;;;;;;;49.57;31.23;;;3.90;99.90;;;;;;5057976;28;20599;-65
2022/03/25 04:40:36;;;;;;;47.90;31.73;;;3.90;99.90;;;;;;5045989;28;20707;-64
2022/03/25 04:43:06;;;;;;;47.53;31.87;;;3.90;99.90;;;;;;5062392;28;20235;-64
2022/03/25 04:45:34;;;;;;;50.93;32.10;;;3.80;99.90;;;;;;5059639;28;20195;-64
2022/03/25 04:48:03;;;;;;;50.20;32.03;;;3.80;99.90;;;;;;5055591;28;20207;-63
2022/03/25 04:50:30;;;;;;;44.90;30.50;;;3.80;99.90;;;;;;5050136;28;20274;-64
2022/03/25 04:52:57;;;;;;;47.10;31.17;;;3.80;99.90;;;;;;5042700;28;20206;-63
2022/03/25 04:55:27;;;;;;;56.07;32.23;;;3.70;99.90;;;;;;5057682;28;20696;-64
2022/03/25 04:57:54;;;;;;;51.63;34.40;;;3.70;99.90;;;;;;5059865;28;20676;-65
2022/03/25 05:00:21;;;;;;;48.90;32.73;;;3.60;99.90;;;;;;5047696;28;20291;-63
2022/03/25 05:02:48;;;;;;;48.23;32.53;;;3.60;99.90;;;;;;5044667;28;20293;-64
2022/03/25 05:05:15;;;;;;;55.83;34.57;;;3.60;99.90;;;;;;5045975;28;20195;-63
2022/03/25 05:07:44;;;;;;;57.27;35.20;;;3.60;99.90;;;;;;5056917;28;20200;-63
2022/03/25 05:10:14;;;;;;;73.73;44.67;;;3.60;99.90;;;;;;5060470;28;20318;-63
2022/03/25 05:12:42;;;;;;;61.60;38.37;;;3.60;99.90;;;;;;5061211;28;20211;-63
2022/03/25 05:15:10;;;;;;;57.80;34.17;;;3.60;99.90;;;;;;5048546;28;20663;-64
2022/03/25 05:17:47;;;;;;;50.67;32.37;;;3.60;99.90;;;;;;5063629;28;20218;-63
2022/03/25 05:20:17;;;;;;;52.10;32.40;;;3.60;99.90;;;;;;5058373;28;20195;-63
2022/03/25 05:22:46;;;;;;;49.23;31.83;;;3.60;99.90;;;;;;5042478;28;20206;-63
2022/03/25 05:25:14;;;;;;;53.93;32.57;;;3.60;99.90;;;;;;5058763;28;20286;-63
2022/03/25 05:27:47;;;;;;;45.47;31.10;;;3.60;99.90;;;;;;5054983;28;20222;-63
2022/03/25 05:30:15;;;;;;;48.63;30.30;;;3.60;99.90;;;;;;5063796;28;20340;-63
2022/03/25 05:32:42;;;;;;;46.30;31.17;;;3.60;99.90;;;;;;5041845;28;20241;-63
2022/03/25 05:35:10;;;;;;;51.93;32.07;;;3.60;99.90;;;;;;5046803;28;20240;-63
2022/03/25 05:37:38;;;;;;;48.67;32.60;;;3.50;99.90;;;;;;5062902;28;20233;-65
2022/03/25 05:40:08;;;;;;;53.53;33.37;;;3.10;1.00;;;;;;5060564;28;20231;-64
2022/03/25 05:42:35;;;;;;;58.87;33.07;;;3.00;1.00;;;;;;5042909;28;20670;-64
2022/03/25 05:45:06;;;;;;;52.73;33.63;;;3.00;1.00;;;;;;5059222;28;20194;-64
2022/03/25 05:47:34;;;;;;;55.10;33.80;;;3.10;1.00;;;;;;5062966;28;20204;-63
2022/03/25 05:50:05;;;;;;;56.67;34.23;;;3.40;1.00;;;;;;5061538;28;20699;-63
2022/03/25 05:52:32;;;;;;;48.90;31.33;;;3.60;1.00;;;;;;5054815;28;20210;-63
2022/03/25 05:54:59;;;;;;;46.37;31.10;;;3.90;99.90;;;;;;5054479;28;20231;-62
2022/03/25 05:57:26;;;;;;;50.50;30.90;;;4.10;99.90;;;;;;5060610;28;20199;-64
2022/03/25 05:59:57;;;;;;;45.00;30.50;;;4.20;99.90;;;;;;5066617;28;20230;-63
2022/03/25 06:02:28;;;;;;;47.00;31.97;;;4.30;99.90;;;;;;5061593;28;20677;-64
2022/03/25 06:04:58;;;;;;;45.43;29.67;;;4.70;99.90;;;;;;5055431;28;20715;-64
2022/03/25 06:07:33;;;;;;;47.03;29.90;;;5.90;1.00;;;;;;5059027;28;20217;-64
2022/03/25 06:10:03;;;;;;;42.73;29.37;;;7.10;1.00;;;;;;5042510;28;20202;-63
2022/03/25 06:12:30;;;;;;;46.47;29.47;;;7.80;99.90;;;;;;5059923;28;20215;-64
2022/03/25 06:14:59;;;;;;;41.97;28.67;;;8.10;99.90;;;;;;5065822;28;20197;-63
2022/03/25 06:17:27;;;;;;;39.90;27.87;;;6.80;99.90;;;;;;5061477;28;20241;-64
2022/03/25 06:19:53;;;;;;;51.93;29.93;;;7.80;99.90;;;;;;5063590;28;20218;-64
2022/03/25 06:22:24;;;;;;;42.33;28.37;;;8.70;99.60;;;;;;5065480;28;20605;-64
2022/03/25 06:24:54;;;;;;;42.60;28.40;;;9.70;1.00;;;;;;5061822;28;20677;-64
2022/03/25 06:27:21;;;;;;;41.57;29.57;;;8.90;1.00;;;;;;5059103;28;20186;-64
2022/03/25 06:29:48;;;;;;;45.23;28.63;;;8.10;99.90;;;;;;5059856;28;20647;-64
2022/03/25 06:32:15;;;;;;;42.10;28.73;;;8.10;99.90;;;;;;5056386;28;21245;-64
2022/03/25 06:34:42;;;;;;;42.97;28.33;;;9.70;1.00;;;;;;5058742;28;20191;-64
2022/03/25 06:37:14;;;;;;;36.90;26.77;;;10.90;1.00;;;;;;5065210;28;20267;-64
2022/03/25 06:39:43;;;;;;;39.47;27.27;;;12.60;1.00;;;;;;5060728;28;20277;-64
2022/03/25 06:42:10;;;;;;;36.03;27.03;;;13.40;1.00;;;;;;5058440;28;20218;-64
2022/03/25 06:44:37;;;;;;;40.83;28.13;;;13.90;99.90;;;;;;5064564;28;20301;-64
2022/03/25 06:47:04;;;;;;;42.83;27.83;;;13.90;99.90;;;;;;5062012;28;20184;-65
2022/03/25 06:49:31;;;;;;;37.57;27.03;;;15.10;99.90;;;;;;5059409;28;20507;-65
2022/03/25 06:51:59;;;;;;;38.57;27.13;;;15.50;99.90;;;;;;5059634;28;20203;-63
2022/03/25 06:54:31;;;;;;;35.20;28.30;;;16.40;99.90;;;;;;5046579;28;20345;-63
2022/03/25 06:57:01;;;;;;;34.67;26.70;;;16.20;99.90;;;;;;5046093;28;20270;-63
2022/03/25 06:59:28;;;;;;;42.47;29.10;;;16.30;99.90;;;;;;5037765;28;20758;-63
2022/03/25 07:01:58;;;;;;;37.67;29.47;;;13.20;99.90;;;;;;5052452;28;20653;-63
2022/03/25 07:04:27;;;;;;;46.73;29.17;;;13.50;99.90;;;;;;5051220;28;20210;-63
2022/03/25 07:06:56;;;;;;;34.90;28.27;;;13.00;1.00;;;;;;5059043;28;20209;-63
2022/03/25 07:09:25;;;;;;;38.50;27.70;;;15.60;99.90;;;;;;5064591;28;20222;-64
2022/03/25 07:11:55;;;;;;;38.78;27.70;;;17.30;99.90;;;;;;5042230;28;20219;-63
2022/03/25 07:14:22;;;;;;;38.63;28.90;;;19.30;99.90;;;;;;5061702;28;20199;-63
2022/03/25 07:16:51;;;;;;;36.17;28.30;;;20.80;99.90;;;;;;5067663;28;20248;-63
2022/03/25 07:19:19;;;;;;;34.80;28.02;;;20.50;99.90;;;;;;5061548;28;20198;-63
2022/03/25 07:21:46;;;;;;;37.08;29.00;;;20.50;99.90;;;;;;5065339;28;20607;-63
2022/03/25 07:24:13;;;;;;;37.05;27.85;;;19.60;99.90;;;;;;5049461;28;20759;-64
2022/03/25 07:26:40;;;;;;;37.85;30.02;;;19.10;99.90;;;;;;5051489;28;20273;-64
2022/03/25 07:29:07;;;;;;;37.08;29.73;;;18.20;99.90;;;;;;5065863;28;23448;-63
2022/03/25 07:31:34;;;;;;;43.60;29.10;;;17.80;99.90;;;;;;5059706;28;20201;-64
2022/03/25 07:34:02;;;;;;;38.03;29.25;;;19.10;99.90;;;;;;5044721;28;20921;-64
2022/03/25 07:36:32;;;;;;;33.95;27.85;;;21.30;99.90;;;;;;5047190;28;20845;-64
2022/03/25 07:38:59;;;;;;;35.83;29.00;;;22.50;99.90;;;;;;5057286;28;20705;-63
2022/03/25 07:41:29;;;;;;;38.38;28.52;;;22.10;99.90;;;;;;5060057;28;20195;-63
2022/03/25 07:43:56;;;;;;;32.58;28.58;;;22.70;99.90;;;;;;5075915;28;20265;-63
2022/03/25 07:46:27;;;;;;;36.25;29.27;;;23.50;99.90;;;;;;5060633;28;20222;-63
2022/03/25 07:48:54;;;;;;;37.50;29.98;;;21.30;99.90;;;;;;5043504;28;20535;-63
2022/03/25 07:51:21;;;;;;;36.78;28.92;;;20.50;99.90;;;;;;5057505;28;20608;-63
2022/03/25 07:53:48;;;;;;;40.28;28.70;;;23.10;99.90;;;;;;5058802;28;20195;-63
2022/03/25 07:56:15;;;;;;;43.60;30.25;;;25.30;99.90;;;;;;5041595;28;20654;-63
2022/03/25 07:58:43;;;;;;;37.47;29.67;;;23.60;99.90;;;;;;5063882;28;20292;-63
2022/03/25 08:01:10;;;;;;;34.28;30.25;;;24.00;99.90;;;;;;5045469;28;20787;-63
2022/03/25 08:03:42;;;;;;;32.95;29.35;;;24.70;99.90;;;;;;5057683;28;20631;-63
2022/03/25 08:06:13;;;;;;;36.03;30.92;;;24.80;99.90;;;;;;5045896;28;20195;-64
2022/03/25 08:08:42;;;;;;;42.90;32.10;;;23.70;99.90;;;;;;5049506;28;20253;-64
2022/03/25 08:11:09;;;;;;;41.35;30.42;;;22.60;99.90;;;;;;5058707;28;20670;-64
2022/03/25 08:13:39;;;;;;;36.33;30.50;;;25.30;99.90;;;;;;5057285;28;20772;-64
2022/03/25 08:16:06;;;;;;;43.25;31.48;;;27.10;99.90;;;;;;5058322;28;20291;-64
2022/03/25 08:18:33;;;;;;;31.80;28.25;;;28.80;99.90;;;;;;5040314;28;20214;-64
2022/03/25 08:21:01;;;;;;;37.05;30.05;;;29.90;99.90;;;;;;5037193;28;20210;-65
2022/03/25 08:29:11;;;;;;;42.22;29.25;;;31.30;99.90;;;;;;5054535;28;20187;-65
2022/03/25 08:31:45;;;;;;;35.92;29.52;;;31.20;99.90;;;;;;5058737;28;20213;-64
2022/03/25 08:34:15;;;;;;;36.17;26.60;;;30.80;99.90;;;;;;5040391;28;20229;-63
2022/03/25 08:36:44;;;;;;;34.75;30.52;;;30.60;99.90;;;;;;5059855;28;20714;-65
2022/03/25 08:39:11;;;;;;;27.27;24.38;;;31.70;99.90;;;;;;5058000;28;20282;-66
2022/03/25 08:41:39;;;;;;;38.05;32.58;;;33.30;99.90;;;;;;5056881;28;20663;-64
2022/03/25 08:44:06;;;;;;;40.28;30.70;;;31.30;99.90;;;;;;5055967;28;20322;-64
2022/03/25 08:46:34;;;;;;;38.75;30.60;;;31.50;99.90;;;;;;5061081;28;20199;-65
2022/03/25 08:49:04;;;;;;;42.80;29.60;;;31.40;99.90;;;;;;5057637;28;20538;-64
2022/03/25 08:51:36;;;;;;;30.20;26.35;;;32.40;99.90;;;;;;5060690;28;20199;-63
2022/03/25 08:54:06;;;;;;;30.48;24.98;;;32.50;99.90;;;;;;5057950;28;20536;-63
2022/03/25 08:56:36;;;;;;;27.35;24.35;;;33.40;99.90;;;;;;5056611;28;20187;-64
2022/03/25 08:59:03;;;;;;;32.05;27.88;;;34.80;99.90;;;;;;5039750;28;20326;-63
2022/03/25 09:01:36;;;;;;;36.95;29.83;;;35.80;99.90;;;;;;5055287;28;20192;-63
2022/03/25 09:04:05;;;;;;;32.05;26.77;;;35.50;99.90;;;;;;5058613;28;20208;-63
2022/03/25 09:06:32;;;;;;;30.20;25.30;;;34.80;99.90;;;;;;5042040;28;20192;-63
2022/03/25 09:08:59;;;;;;;36.42;27.45;;;35.60;99.90;;;;;;5035376;28;20221;-63
2022/03/25 09:11:31;;;;;;;33.92;25.70;;;33.50;99.90;;;;;;5053114;28;20334;-63
2022/03/25 09:13:58;;;;;;;35.40;28.75;;;33.60;99.90;;;;;;5051585;28;20941;-66
2022/03/25 09:16:28;;;;;;;32.38;26.35;;;31.20;99.90;;;;;;5036661;28;20290;-67
2022/03/25 09:18:59;;;;;;;31.42;26.48;;;30.90;99.90;;;;;;5020900;28;20211;-72
2022/03/25 09:21:26;;;;;;;30.88;25.15;;;33.90;99.90;;;;;;5039281;28;20248;-64
2022/03/25 09:23:53;;;;;;;32.13;25.42;;;35.70;99.90;;;;;;5065409;28;20242;-64
2022/03/25 09:26:20;;;;;;;28.10;24.85;;;34.20;99.90;;;;;;5049907;28;20206;-64
2022/03/25 09:28:50;;;;;;;29.85;24.98;;;34.10;99.90;;;;;;5062177;28;20198;-64
2022/03/25 09:31:17;;;;;;;35.63;24.83;;;30.10;99.90;;;;;;5061382;28;20226;-63
2022/03/25 09:36:51;;;;;;;32.08;24.73;;;33.60;99.90;;;;;;5060489;28;20191;-65
2022/03/25 09:39:21;;;;;;;34.70;23.42;;;34.20;99.90;;;;;;5044399;28;20199;-66
2022/03/25 09:41:49;;;;;;;35.15;24.27;;;36.00;99.90;;;;;;5056600;28;20432;-64
2022/03/25 09:44:19;;;;;;;34.97;26.15;;;35.20;99.90;;;;;;5045186;28;20808;-63
2022/03/25 09:46:50;;;;;;;33.22;24.27;;;31.40;99.90;;;;;;5061906;28;20284;-64
2022/03/25 09:49:18;;;;;;;34.05;24.67;;;32.80;99.90;;;;;;5061478;28;20242;-63
2022/03/25 09:51:45;;;;;;;34.13;24.33;;;35.20;99.90;;;;;;5046542;28;20915;-63
2022/03/25 09:54:14;;;;;;;32.35;24.35;;;33.20;99.90;;;;;;5043272;28;20263;-62
2022/03/25 09:56:41;;;;;;;33.30;24.88;;;35.80;99.90;;;;;;5058612;28;20550;-64
2022/03/25 09:59:08;;;;;;;31.95;23.00;;;36.70;99.90;;;;;;5046941;28;20250;-63
2022/03/25 10:01:35;;;;;;;26.23;21.15;;;34.20;99.90;;;;;;5060962;28;20217;-63
2022/03/25 10:04:06;;;;;;;29.58;21.80;;;33.20;99.90;;;;;;5049703;28;20206;-64
2022/03/25 10:06:46;;;;;;;28.55;20.92;;;32.60;99.90;;;;;;5060937;28;20237;-65
2022/03/25 10:09:22;;;;;;;32.28;21.85;;;30.50;99.90;;;;;;5061684;28;20236;-64
2022/03/25 10:11:49;;;;;;;25.98;19.88;;;29.90;99.90;;;;;;5044098;28;20260;-63
2022/03/25 10:14:22;;;;;;;27.27;20.45;;;30.10;99.90;;;;;;5059213;28;20290;-65
2022/03/25 10:16:51;;;;;;;23.77;19.23;;;30.00;99.90;;;;;;5059394;28;20202;-63
2022/03/25 10:19:21;;;;;;;27.17;18.45;;;31.10;99.90;;;;;;5042705;28;20199;-63
2022/03/25 10:22:04;;;;;;;24.98;17.77;;;31.60;99.90;;;;;;5061129;28;20237;-64
2022/03/25 10:24:52;;;;;;;21.88;17.52;;;32.10;99.90;;;;;;5057079;28;20213;-64
2022/03/25 10:27:28;;;;;;;26.30;18.33;;;29.50;99.90;;;;;;5058424;28;20682;-63
2022/03/25 10:29:55;;;;;;;29.58;18.23;;;29.50;99.90;;;;;;5060427;28;20688;-64
2022/03/25 10:32:25;;;;;;;24.73;18.60;;;28.40;99.90;;;;;;5061705;28;20237;-64
2022/03/25 10:35:13;;;;;;;30.35;18.42;;;28.60;99.90;;;;;;5045734;28;20191;-65
2022/03/25 10:38:00;;;;;;;28.85;16.60;;;27.20;99.90;;;;;;5060851;28;20190;-65
2022/03/25 10:40:28;;;;;;;28.30;19.42;;;27.40;99.90;;;;;;5058502;28;20283;-64
2022/03/25 10:43:05;;;;;;;26.13;17.88;;;26.60;99.90;;;;;;5050846;28;20713;-64
2022/03/25 10:45:34;;;;;;;28.25;18.90;;;26.50;99.90;;;;;;5061604;28;20624;-63
2022/03/25 10:48:30;;;;;;;24.08;17.95;;;26.10;99.90;;;;;;5061343;28;20203;-63
2022/03/25 10:51:08;;;;;;;24.25;17.73;;;25.90;99.90;;;;;;5045133;28;20616;-64
2022/03/25 10:53:37;;;;;;;25.25;18.77;;;26.60;99.90;;;;;;5065794;28;20315;-64
2022/03/25 10:56:12;;;;;;;25.27;18.55;;;26.20;99.90;;;;;;5060283;28;20302;-64
2022/03/25 10:58:50;;;;;;;29.33;18.38;;;26.50;99.90;;;;;;5065120;28;20211;-64
2022/03/25 11:01:17;;;;;;;25.95;20.13;;;25.90;99.90;;;;;;5062256;28;20195;-64
2022/03/25 11:03:48;;;;;;;32.70;20.48;;;25.60;99.90;;;;;;5066222;28;20711;-64
2022/03/25 11:06:17;;;;;;;28.23;19.40;;;24.10;99.90;;;;;;5048778;28;20569;-63
2022/03/25 11:08:47;;;;;;;26.13;20.13;;;24.50;99.90;;;;;;5060548;28;20266;-64
2022/03/25 11:11:20;;;;;;;27.95;19.13;;;24.70;99.90;;;;;;5047211;28;20238;-64
2022/03/25 11:13:47;;;;;;;27.02;19.23;;;24.40;99.90;;;;;;5044574;28;20210;-64
2022/03/25 11:16:18;;;;;;;26.13;19.55;;;24.30;99.90;;;;;;5075005;28;20580;-64
2022/03/25 11:18:48;;;;;;;27.48;19.55;;;25.10;99.90;;;;;;5062771;28;20194;-64
2022/03/25 11:21:15;;;;;;;25.30;19.40;;;25.00;99.90;;;;;;5059363;28;20230;-63
2022/03/25 11:23:47;;;;;;;25.98;19.23;;;23.50;99.90;;;;;;5057907;28;20358;-65
2022/03/25 11:26:21;;;;;;;28.05;19.90;;;23.70;99.90;;;;;;5057450;28;20203;-63
2022/03/25 11:28:57;;;;;;;30.50;20.50;;;24.60;99.90;;;;;;5036455;28;20210;-64
2022/03/25 11:31:27;;;;;;;30.52;20.88;;;23.20;99.90;;;;;;5064153;28;20695;-64
2022/03/25 11:34:16;;;;;;;28.48;21.08;;;22.40;99.90;;;;;;5043213;28;20222;-64
2022/03/25 11:36:45;;;;;;;33.92;22.08;;;22.70;99.90;;;;;;5058589;28;20658;-64
2022/03/25 11:39:24;;;;;;;31.10;20.85;;;23.50;99.90;;;;;;5059892;28;20264;-64
2022/03/25 11:42:00;;;;;;;31.70;20.45;;;23.00;99.90;;;;;;5063690;28;20213;-64
2022/03/25 11:44:27;;;;;;;29.88;19.90;;;22.90;99.90;;;;;;5056682;28;20725;-64
2022/03/25 11:47:00;;;;;;;25.30;18.40;;;23.40;99.90;;;;;;5061132;28;20202;-64
2022/03/25 11:49:32;;;;;;;25.70;18.05;;;23.30;99.90;;;;;;5041844;28;20252;-64
2022/03/25 11:52:29;;;;;;;27.38;18.60;;;22.80;99.90;;;;;;5063335;28;20269;-64
2022/03/25 11:55:00;;;;;;;30.08;19.88;;;22.50;99.90;;;;;;5056810;28;20655;-64
2022/03/25 11:57:35;;;;;;;35.55;19.63;;;22.30;99.90;;;;;;5060914;28;20245;-64
2022/03/25 12:00:06;;;;;;;24.55;18.30;;;22.20;99.90;;;;;;5057594;28;20237;-64
2022/03/25 12:02:35;;;;;;;26.25;18.10;;;22.30;99.90;;;;;;5057962;28;20581;-64
2022/03/25 12:05:05;;;;;;;25.75;17.70;;;22.80;99.90;;;;;;5059011;28;20248;-64
2022/03/25 12:07:32;;;;;;;26.10;18.95;;;23.50;99.90;;;;;;5048360;28;20195;-64
2022/03/25 12:09:59;;;;;;;24.30;14.48;;;23.00;99.90;;;;;;5042687;28;20581;-63
2022/03/25 12:12:52;;;;;;;20.42;12.82;;;22.70;99.90;;;;;;5041514;28;20213;-63
2022/03/25 12:15:20;;;;;;;21.83;15.43;;;21.50;99.90;;;;;;5047604;28;20233;-63
2022/03/25 12:17:47;;;;;;;24.23;16.85;;;21.40;99.90;;;;;;5063270;28;20191;-64
2022/03/25 12:20:40;;;;;;;25.00;16.38;;;21.20;99.90;;;;;;5057430;28;20214;-64
2022/03/25 12:23:10;;;;;;;24.35;16.30;;;21.00;99.90;;;;;;5059442;28;20214;-64
2022/03/25 12:25:42;;;;;;;24.25;15.90;;;21.20;99.90;;;;;;5058708;28;20183;-64
2022/03/25 12:28:12;;;;;;;23.20;14.70;;;21.40;99.90;;;;;;5057279;28;20588;-64
2022/03/25 12:30:39;;;;;;;21.00;13.48;;;21.50;99.90;;;;;;5046093;28;20678;-64
2022/03/25 12:33:08;;;;;;;28.73;16.98;;;21.80;99.90;;;;;;5047698;28;20303;-64
2022/03/25 12:35:37;;;;;;;24.92;17.05;;;22.50;99.90;;;;;;5029607;28;20191;-64
2022/03/25 12:38:12;;;;;;;22.48;15.50;;;21.90;99.90;;;;;;5036024;28;20210;-63
2022/03/25 12:40:39;;;;;;;26.20;16.40;;;21.40;99.90;;;;;;5056488;28;20193;-63
2022/03/25 12:43:08;;;;;;;26.50;17.10;;;20.50;99.90;;;;;;5045677;28;20222;-64
2022/03/25 12:45:51;;;;;;;28.45;17.35;;;20.60;99.90;;;;;;5071524;28;20195;-65
2022/03/25 12:48:18;;;;;;;22.85;16.83;;;20.40;99.90;;;;;;5066719;28;20194;-63
2022/03/25 12:50:56;;;;;;;22.30;16.13;;;20.20;99.90;;;;;;5068352;28;20205;-64
2022/03/25 12:53:28;;;;;;;21.65;16.20;;;20.40;99.90;;;;;;5048967;28;20245;-64
2022/03/25 12:55:57;;;;;;;20.35;15.57;;;19.80;99.90;;;;;;5064403;28;20187;-64
2022/03/25 12:58:27;;;;;;;22.50;15.30;;;19.50;99.90;;;;;;5079430;28;20200;-64